sensor_id;sensor_type;location;lat;lon;timestamp;P1;durP1;ratioP1;P2;durP2;ratioP2
48596;SDS011;34382;43.160;24.148;2023-04-06T00:02:04;13.77;;;7.40;;
48596;SDS011;34382;43.160;24.148;2023-04-06T00:03:37;12.88;;;7.70;;
48596;SDS011;34382;43.160;24.148;2023-04-06T00:05:09;13.38;;;7.75;;
48596;SDS011;34382;43.160;24.148;2023-04-06T00:06:41;12.77;;;7.53;;
48596;SDS011;34382;43.160;24.148;2023-04-06T00:08:13;13.23;;;7.57;;
48596;SDS011;34382;43.160;24.148;2023-04-06T00:09:46;12.10;;;7.28;;
48596;SDS011;34382;43.160;24.148;2023-04-06T00:11:18;12.13;;;7.18;;
48596;SDS011;34382;43.160;24.148;2023-04-06T00:12:50;12.32;;;7.55;;
48596;SDS011;34382;43.160;24.148;2023-04-06T00:14:22;11.57;;;6.90;;
48596;SDS011;34382;43.160;24.148;2023-04-06T00:15:55;12.65;;;7.57;;
48596;SDS011;34382;43.160;24.148;2023-04-06T00:17:27;13.82;;;7.40;;
48596;SDS011;34382;43.160;24.148;2023-04-06T00:18:59;12.18;;;6.97;;
48596;SDS011;34382;43.160;24.148;2023-04-06T00:20:31;11.88;;;7.45;;
48596;SDS011;34382;43.160;24.148;2023-04-06T00:22:03;11.73;;;7.07;;
48596;SDS011;34382;43.160;24.148;2023-04-06T00:23:36;12.02;;;7.13;;
48596;SDS011;34382;43.160;24.148;2023-04-06T00:25:08;13.60;;;7.90;;
48596;SDS011;34382;43.160;24.148;2023-04-06T00:26:41;12.90;;;7.50;;
48596;SDS011;34382;43.160;24.148;2023-04-06T00:28:13;13.30;;;7.60;;
48596;SDS011;34382;43.160;24.148;2023-04-06T00:32:52;11.18;;;6.60;;
48596;SDS011;34382;43.160;24.148;2023-04-06T00:34:24;12.30;;;7.90;;
48596;SDS011;34382;43.160;24.148;2023-04-06T00:35:56;15.05;;;8.80;;
48596;SDS011;34382;43.160;24.148;2023-04-06T00:37:29;10.75;;;6.68;;
48596;SDS011;34382;43.160;24.148;2023-04-06T00:39:01;11.30;;;6.78;;
48596;SDS011;34382;43.160;24.148;2023-04-06T00:40:34;10.52;;;6.60;;
48596;SDS011;34382;43.160;24.148;2023-04-06T00:42:11;12.98;;;7.22;;
48596;SDS011;34382;43.160;24.148;2023-04-06T00:43:46;11.57;;;6.53;;
48596;SDS011;34382;43.160;24.148;2023-04-06T00:45:19;11.85;;;6.95;;
48596;SDS011;34382;43.160;24.148;2023-04-06T00:46:51;11.57;;;7.55;;
48596;SDS011;34382;43.160;24.148;2023-04-06T00:48:23;11.90;;;7.05;;
48596;SDS011;34382;43.160;24.148;2023-04-06T00:49:56;12.02;;;7.35;;
48596;SDS011;34382;43.160;24.148;2023-04-06T00:51:28;12.00;;;7.95;;
48596;SDS011;34382;43.160;24.148;2023-04-06T00:53:00;11.80;;;6.78;;
48596;SDS011;34382;43.160;24.148;2023-04-06T00:54:32;12.70;;;7.65;;
48596;SDS011;34382;43.160;24.148;2023-04-06T00:56:05;13.13;;;7.13;;
48596;SDS011;34382;43.160;24.148;2023-04-06T00:57:37;12.27;;;7.38;;
48596;SDS011;34382;43.160;24.148;2023-04-06T00:59:12;13.05;;;7.80;;
48596;SDS011;34382;43.160;24.148;2023-04-06T01:00:44;12.05;;;7.43;;
48596;SDS011;34382;43.160;24.148;2023-04-06T01:02:17;13.15;;;7.57;;
48596;SDS011;34382;43.160;24.148;2023-04-06T01:03:49;12.15;;;7.53;;
48596;SDS011;34382;43.160;24.148;2023-04-06T01:05:21;13.88;;;7.68;;
48596;SDS011;34382;43.160;24.148;2023-04-06T01:06:54;13.13;;;7.65;;
48596;SDS011;34382;43.160;24.148;2023-04-06T01:08:26;12.68;;;8.07;;
48596;SDS011;34382;43.160;24.148;2023-04-06T01:09:58;12.13;;;7.47;;
48596;SDS011;34382;43.160;24.148;2023-04-06T01:11:31;12.23;;;7.25;;
48596;SDS011;34382;43.160;24.148;2023-04-06T01:13:03;14.25;;;7.47;;
48596;SDS011;34382;43.160;24.148;2023-04-06T01:14:35;12.27;;;7.93;;
48596;SDS011;34382;43.160;24.148;2023-04-06T01:16:07;13.35;;;7.22;;
48596;SDS011;34382;43.160;24.148;2023-04-06T01:19:13;13.35;;;7.95;;
48596;SDS011;34382;43.160;24.148;2023-04-06T01:20:45;12.88;;;8.10;;
48596;SDS011;34382;43.160;24.148;2023-04-06T01:22:18;12.85;;;7.95;;
48596;SDS011;34382;43.160;24.148;2023-04-06T01:23:50;14.35;;;7.50;;
48596;SDS011;34382;43.160;24.148;2023-04-06T01:25:22;11.55;;;7.05;;
48596;SDS011;34382;43.160;24.148;2023-04-06T01:26:54;13.68;;;7.43;;
48596;SDS011;34382;43.160;24.148;2023-04-06T01:28:28;12.52;;;7.35;;
48596;SDS011;34382;43.160;24.148;2023-04-06T01:30:00;11.23;;;6.57;;
48596;SDS011;34382;43.160;24.148;2023-04-06T01:31:32;11.98;;;7.32;;
48596;SDS011;34382;43.160;24.148;2023-04-06T01:33:04;11.30;;;6.97;;
48596;SDS011;34382;43.160;24.148;2023-04-06T01:34:36;11.93;;;6.80;;
48596;SDS011;34382;43.160;24.148;2023-04-06T01:36:08;11.95;;;7.50;;
48596;SDS011;34382;43.160;24.148;2023-04-06T01:37:41;12.48;;;7.38;;
48596;SDS011;34382;43.160;24.148;2023-04-06T01:39:13;11.80;;;7.03;;
48596;SDS011;34382;43.160;24.148;2023-04-06T01:40:45;11.32;;;6.95;;
48596;SDS011;34382;43.160;24.148;2023-04-06T01:42:17;13.63;;;8.00;;
48596;SDS011;34382;43.160;24.148;2023-04-06T01:43:49;12.70;;;7.32;;
48596;SDS011;34382;43.160;24.148;2023-04-06T01:45:26;11.70;;;7.10;;
48596;SDS011;34382;43.160;24.148;2023-04-06T01:46:58;13.32;;;7.63;;
48596;SDS011;34382;43.160;24.148;2023-04-06T01:48:31;12.50;;;7.80;;
48596;SDS011;34382;43.160;24.148;2023-04-06T01:50:03;13.95;;;7.78;;
48596;SDS011;34382;43.160;24.148;2023-04-06T01:51:37;13.48;;;8.10;;
48596;SDS011;34382;43.160;24.148;2023-04-06T01:53:09;14.07;;;7.82;;
48596;SDS011;34382;43.160;24.148;2023-04-06T01:54:42;12.75;;;7.78;;
48596;SDS011;34382;43.160;24.148;2023-04-06T01:56:14;12.10;;;7.68;;
48596;SDS011;34382;43.160;24.148;2023-04-06T01:57:46;13.95;;;7.75;;
48596;SDS011;34382;43.160;24.148;2023-04-06T01:59:18;13.15;;;7.20;;
48596;SDS011;34382;43.160;24.148;2023-04-06T02:00:51;11.55;;;7.18;;
48596;SDS011;34382;43.160;24.148;2023-04-06T02:02:23;13.38;;;7.50;;
48596;SDS011;34382;43.160;24.148;2023-04-06T02:03:55;13.90;;;7.43;;
48596;SDS011;34382;43.160;24.148;2023-04-06T02:05:28;13.52;;;8.07;;
48596;SDS011;34382;43.160;24.148;2023-04-06T02:07:01;11.80;;;6.72;;
48596;SDS011;34382;43.160;24.148;2023-04-06T02:08:33;14.10;;;8.40;;
48596;SDS011;34382;43.160;24.148;2023-04-06T02:10:10;13.00;;;7.55;;
48596;SDS011;34382;43.160;24.148;2023-04-06T02:11:44;12.20;;;7.18;;
48596;SDS011;34382;43.160;24.148;2023-04-06T02:13:16;11.80;;;7.80;;
48596;SDS011;34382;43.160;24.148;2023-04-06T02:14:48;13.82;;;7.75;;
48596;SDS011;34382;43.160;24.148;2023-04-06T02:16:20;12.48;;;7.63;;
48596;SDS011;34382;43.160;24.148;2023-04-06T02:17:53;13.60;;;7.88;;
48596;SDS011;34382;43.160;24.148;2023-04-06T02:19:25;13.82;;;8.02;;
48596;SDS011;34382;43.160;24.148;2023-04-06T02:20:57;14.00;;;7.88;;
48596;SDS011;34382;43.160;24.148;2023-04-06T02:22:29;13.52;;;8.90;;
48596;SDS011;34382;43.160;24.148;2023-04-06T02:24:02;13.23;;;7.80;;
48596;SDS011;34382;43.160;24.148;2023-04-06T02:25:34;13.25;;;8.40;;
48596;SDS011;34382;43.160;24.148;2023-04-06T02:27:06;12.73;;;7.47;;
48596;SDS011;34382;43.160;24.148;2023-04-06T02:28:38;13.45;;;7.93;;
48596;SDS011;34382;43.160;24.148;2023-04-06T02:30:11;12.23;;;6.85;;
48596;SDS011;34382;43.160;24.148;2023-04-06T02:31:43;12.45;;;7.10;;
48596;SDS011;34382;43.160;24.148;2023-04-06T02:33:16;12.38;;;7.05;;
48596;SDS011;34382;43.160;24.148;2023-04-06T02:34:48;12.38;;;7.32;;
48596;SDS011;34382;43.160;24.148;2023-04-06T02:36:20;13.25;;;7.10;;
48596;SDS011;34382;43.160;24.148;2023-04-06T02:37:52;11.93;;;6.85;;
48596;SDS011;34382;43.160;24.148;2023-04-06T02:39:24;12.52;;;7.20;;
48596;SDS011;34382;43.160;24.148;2023-04-06T02:40:56;12.57;;;7.22;;
48596;SDS011;34382;43.160;24.148;2023-04-06T02:42:28;12.27;;;7.07;;
48596;SDS011;34382;43.160;24.148;2023-04-06T02:44:01;11.73;;;7.28;;
48596;SDS011;34382;43.160;24.148;2023-04-06T02:45:33;14.80;;;7.25;;
48596;SDS011;34382;43.160;24.148;2023-04-06T02:47:06;12.47;;;7.03;;
48596;SDS011;34382;43.160;24.148;2023-04-06T02:48:38;11.48;;;6.63;;
48596;SDS011;34382;43.160;24.148;2023-04-06T02:50:10;16.20;;;7.35;;
48596;SDS011;34382;43.160;24.148;2023-04-06T02:51:42;14.05;;;7.88;;
48596;SDS011;34382;43.160;24.148;2023-04-06T02:53:14;12.85;;;7.00;;
48596;SDS011;34382;43.160;24.148;2023-04-06T02:54:46;12.48;;;7.43;;
48596;SDS011;34382;43.160;24.148;2023-04-06T02:56:18;13.70;;;7.45;;
48596;SDS011;34382;43.160;24.148;2023-04-06T02:57:52;12.90;;;8.05;;
48596;SDS011;34382;43.160;24.148;2023-04-06T02:59:27;12.93;;;7.95;;
48596;SDS011;34382;43.160;24.148;2023-04-06T03:00:59;11.65;;;7.30;;
48596;SDS011;34382;43.160;24.148;2023-04-06T03:02:32;13.43;;;7.38;;
48596;SDS011;34382;43.160;24.148;2023-04-06T03:04:04;13.02;;;7.68;;
48596;SDS011;34382;43.160;24.148;2023-04-06T03:05:36;13.02;;;7.78;;
48596;SDS011;34382;43.160;24.148;2023-04-06T03:07:08;12.75;;;8.25;;
48596;SDS011;34382;43.160;24.148;2023-04-06T03:08:41;13.80;;;8.23;;
48596;SDS011;34382;43.160;24.148;2023-04-06T03:10:13;15.63;;;8.07;;
48596;SDS011;34382;43.160;24.148;2023-04-06T03:11:45;12.45;;;7.55;;
48596;SDS011;34382;43.160;24.148;2023-04-06T03:13:17;15.02;;;7.85;;
48596;SDS011;34382;43.160;24.148;2023-04-06T03:14:49;13.07;;;7.20;;
48596;SDS011;34382;43.160;24.148;2023-04-06T03:16:21;13.07;;;7.90;;
48596;SDS011;34382;43.160;24.148;2023-04-06T03:17:54;14.07;;;7.85;;
48596;SDS011;34382;43.160;24.148;2023-04-06T03:19:29;12.75;;;7.47;;
48596;SDS011;34382;43.160;24.148;2023-04-06T03:21:02;12.48;;;7.65;;
48596;SDS011;34382;43.160;24.148;2023-04-06T03:22:34;11.48;;;6.90;;
48596;SDS011;34382;43.160;24.148;2023-04-06T03:24:06;12.57;;;7.85;;
48596;SDS011;34382;43.160;24.148;2023-04-06T03:25:39;13.73;;;8.15;;
48596;SDS011;34382;43.160;24.148;2023-04-06T03:28:50;14.32;;;8.73;;
48596;SDS011;34382;43.160;24.148;2023-04-06T03:30:22;14.88;;;8.40;;
48596;SDS011;34382;43.160;24.148;2023-04-06T03:31:55;12.50;;;7.82;;
48596;SDS011;34382;43.160;24.148;2023-04-06T03:33:27;14.57;;;8.18;;
48596;SDS011;34382;43.160;24.148;2023-04-06T03:34:59;13.77;;;8.02;;
48596;SDS011;34382;43.160;24.148;2023-04-06T03:36:33;15.95;;;9.50;;
48596;SDS011;34382;43.160;24.148;2023-04-06T03:38:06;13.20;;;8.00;;
48596;SDS011;34382;43.160;24.148;2023-04-06T03:39:38;13.00;;;7.70;;
48596;SDS011;34382;43.160;24.148;2023-04-06T03:41:10;14.48;;;7.43;;
48596;SDS011;34382;43.160;24.148;2023-04-06T03:42:42;13.63;;;8.02;;
48596;SDS011;34382;43.160;24.148;2023-04-06T03:44:15;13.02;;;7.40;;
48596;SDS011;34382;43.160;24.148;2023-04-06T03:45:47;14.38;;;7.60;;
48596;SDS011;34382;43.160;24.148;2023-04-06T03:47:19;14.93;;;8.25;;
48596;SDS011;34382;43.160;24.148;2023-04-06T03:48:52;15.70;;;8.87;;
48596;SDS011;34382;43.160;24.148;2023-04-06T03:50:24;24.58;;;12.93;;
48596;SDS011;34382;43.160;24.148;2023-04-06T03:51:56;21.00;;;11.38;;
48596;SDS011;34382;43.160;24.148;2023-04-06T03:53:29;21.63;;;16.23;;
48596;SDS011;34382;43.160;24.148;2023-04-06T03:55:01;17.85;;;11.13;;
48596;SDS011;34382;43.160;24.148;2023-04-06T03:56:33;16.67;;;10.10;;
48596;SDS011;34382;43.160;24.148;2023-04-06T03:58:06;15.18;;;8.10;;
48596;SDS011;34382;43.160;24.148;2023-04-06T03:59:38;15.20;;;8.25;;
48596;SDS011;34382;43.160;24.148;2023-04-06T04:01:10;12.98;;;7.97;;
48596;SDS011;34382;43.160;24.148;2023-04-06T04:02:43;13.25;;;8.07;;
48596;SDS011;34382;43.160;24.148;2023-04-06T04:04:15;14.70;;;9.00;;
48596;SDS011;34382;43.160;24.148;2023-04-06T04:05:47;16.02;;;8.98;;
48596;SDS011;34382;43.160;24.148;2023-04-06T04:07:19;14.88;;;9.43;;
48596;SDS011;34382;43.160;24.148;2023-04-06T04:08:51;13.85;;;8.02;;
48596;SDS011;34382;43.160;24.148;2023-04-06T04:10:24;14.00;;;9.07;;
48596;SDS011;34382;43.160;24.148;2023-04-06T04:11:56;14.48;;;8.90;;
48596;SDS011;34382;43.160;24.148;2023-04-06T04:13:28;15.98;;;9.40;;
48596;SDS011;34382;43.160;24.148;2023-04-06T04:15:00;14.50;;;8.75;;
48596;SDS011;34382;43.160;24.148;2023-04-06T04:16:33;14.93;;;9.05;;
48596;SDS011;34382;43.160;24.148;2023-04-06T04:18:05;15.07;;;9.35;;
48596;SDS011;34382;43.160;24.148;2023-04-06T04:19:37;14.63;;;8.93;;
48596;SDS011;34382;43.160;24.148;2023-04-06T04:21:09;19.27;;;9.57;;
48596;SDS011;34382;43.160;24.148;2023-04-06T04:22:42;15.77;;;9.75;;
48596;SDS011;34382;43.160;24.148;2023-04-06T04:24:14;16.92;;;10.05;;
48596;SDS011;34382;43.160;24.148;2023-04-06T04:25:46;16.63;;;9.80;;
48596;SDS011;34382;43.160;24.148;2023-04-06T04:27:18;16.90;;;10.30;;
48596;SDS011;34382;43.160;24.148;2023-04-06T04:28:52;13.90;;;8.95;;
48596;SDS011;34382;43.160;24.148;2023-04-06T04:30:24;15.02;;;9.00;;
48596;SDS011;34382;43.160;24.148;2023-04-06T04:31:56;16.65;;;10.02;;
48596;SDS011;34382;43.160;24.148;2023-04-06T04:33:28;13.30;;;8.48;;
48596;SDS011;34382;43.160;24.148;2023-04-06T04:35:01;15.45;;;8.75;;
48596;SDS011;34382;43.160;24.148;2023-04-06T04:36:33;20.02;;;10.93;;
48596;SDS011;34382;43.160;24.148;2023-04-06T04:38:05;16.58;;;10.00;;
48596;SDS011;34382;43.160;24.148;2023-04-06T04:39:37;15.90;;;9.77;;
48596;SDS011;34382;43.160;24.148;2023-04-06T04:41:10;16.13;;;9.60;;
48596;SDS011;34382;43.160;24.148;2023-04-06T04:42:42;14.40;;;7.80;;
48596;SDS011;34382;43.160;24.148;2023-04-06T04:44:14;14.68;;;9.18;;
48596;SDS011;34382;43.160;24.148;2023-04-06T04:45:46;15.60;;;9.27;;
48596;SDS011;34382;43.160;24.148;2023-04-06T04:47:18;18.40;;;10.18;;
48596;SDS011;34382;43.160;24.148;2023-04-06T04:48:51;14.32;;;8.32;;
48596;SDS011;34382;43.160;24.148;2023-04-06T04:50:23;14.93;;;8.13;;
48596;SDS011;34382;43.160;24.148;2023-04-06T04:51:55;15.15;;;8.85;;
48596;SDS011;34382;43.160;24.148;2023-04-06T04:53:27;16.77;;;9.15;;
48596;SDS011;34382;43.160;24.148;2023-04-06T04:54:59;14.40;;;8.18;;
48596;SDS011;34382;43.160;24.148;2023-04-06T04:56:32;16.73;;;8.68;;
48596;SDS011;34382;43.160;24.148;2023-04-06T04:58:04;16.50;;;8.80;;
48596;SDS011;34382;43.160;24.148;2023-04-06T04:59:36;15.05;;;8.35;;
48596;SDS011;34382;43.160;24.148;2023-04-06T05:01:08;17.58;;;10.25;;
48596;SDS011;34382;43.160;24.148;2023-04-06T05:02:41;17.15;;;9.50;;
48596;SDS011;34382;43.160;24.148;2023-04-06T05:04:13;17.90;;;10.25;;
48596;SDS011;34382;43.160;24.148;2023-04-06T05:05:45;17.70;;;10.52;;
48596;SDS011;34382;43.160;24.148;2023-04-06T05:07:17;22.90;;;12.02;;
48596;SDS011;34382;43.160;24.148;2023-04-06T05:08:51;22.30;;;12.73;;
48596;SDS011;34382;43.160;24.148;2023-04-06T05:10:24;24.27;;;14.10;;
48596;SDS011;34382;43.160;24.148;2023-04-06T05:11:56;24.60;;;14.20;;
48596;SDS011;34382;43.160;24.148;2023-04-06T05:13:29;23.53;;;13.17;;
48596;SDS011;34382;43.160;24.148;2023-04-06T05:15:02;19.20;;;10.55;;
48596;SDS011;34382;43.160;24.148;2023-04-06T05:16:34;18.35;;;10.43;;
48596;SDS011;34382;43.160;24.148;2023-04-06T05:18:07;30.27;;;14.13;;
48596;SDS011;34382;43.160;24.148;2023-04-06T05:19:40;23.45;;;14.32;;
48596;SDS011;34382;43.160;24.148;2023-04-06T05:21:12;19.35;;;10.07;;
48596;SDS011;34382;43.160;24.148;2023-04-06T05:22:44;14.95;;;8.57;;
48596;SDS011;34382;43.160;24.148;2023-04-06T05:24:16;12.30;;;7.53;;
48596;SDS011;34382;43.160;24.148;2023-04-06T05:25:49;17.80;;;9.45;;
48596;SDS011;34382;43.160;24.148;2023-04-06T05:27:21;15.80;;;9.90;;
48596;SDS011;34382;43.160;24.148;2023-04-06T05:28:53;17.65;;;10.48;;
48596;SDS011;34382;43.160;24.148;2023-04-06T05:30:26;15.52;;;9.32;;
48596;SDS011;34382;43.160;24.148;2023-04-06T05:31:58;15.07;;;8.52;;
48596;SDS011;34382;43.160;24.148;2023-04-06T05:33:31;14.90;;;9.10;;
48596;SDS011;34382;43.160;24.148;2023-04-06T05:35:04;14.70;;;8.25;;
48596;SDS011;34382;43.160;24.148;2023-04-06T05:36:36;13.80;;;7.82;;
48596;SDS011;34382;43.160;24.148;2023-04-06T05:38:09;14.70;;;8.57;;
48596;SDS011;34382;43.160;24.148;2023-04-06T05:39:43;13.88;;;7.95;;
48596;SDS011;34382;43.160;24.148;2023-04-06T05:41:16;15.05;;;9.18;;
48596;SDS011;34382;43.160;24.148;2023-04-06T05:42:48;17.95;;;10.82;;
48596;SDS011;34382;43.160;24.148;2023-04-06T05:44:21;27.83;;;13.82;;
48596;SDS011;34382;43.160;24.148;2023-04-06T05:45:53;19.65;;;12.80;;
48596;SDS011;34382;43.160;24.148;2023-04-06T05:47:25;13.77;;;7.82;;
48596;SDS011;34382;43.160;24.148;2023-04-06T05:48:58;11.68;;;6.78;;
48596;SDS011;34382;43.160;24.148;2023-04-06T05:50:30;11.50;;;7.10;;
48596;SDS011;34382;43.160;24.148;2023-04-06T05:52:02;11.50;;;6.28;;
48596;SDS011;34382;43.160;24.148;2023-04-06T05:53:35;11.15;;;5.80;;
48596;SDS011;34382;43.160;24.148;2023-04-06T05:55:08;10.57;;;6.03;;
48596;SDS011;34382;43.160;24.148;2023-04-06T05:56:41;10.60;;;5.80;;
48596;SDS011;34382;43.160;24.148;2023-04-06T05:58:16;12.05;;;6.28;;
48596;SDS011;34382;43.160;24.148;2023-04-06T06:01:21;10.63;;;6.20;;
48596;SDS011;34382;43.160;24.148;2023-04-06T06:02:53;10.70;;;6.43;;
48596;SDS011;34382;43.160;24.148;2023-04-06T06:04:26;10.05;;;5.70;;
48596;SDS011;34382;43.160;24.148;2023-04-06T06:06:01;11.10;;;5.93;;
48596;SDS011;34382;43.160;24.148;2023-04-06T06:07:36;12.85;;;6.53;;
48596;SDS011;34382;43.160;24.148;2023-04-06T06:09:08;12.57;;;6.13;;
48596;SDS011;34382;43.160;24.148;2023-04-06T06:10:41;12.35;;;6.75;;
48596;SDS011;34382;43.160;24.148;2023-04-06T06:12:13;13.60;;;6.80;;
48596;SDS011;34382;43.160;24.148;2023-04-06T06:13:46;11.57;;;6.20;;
48596;SDS011;34382;43.160;24.148;2023-04-06T06:15:18;11.73;;;6.50;;
48596;SDS011;34382;43.160;24.148;2023-04-06T06:16:50;12.05;;;6.07;;
48596;SDS011;34382;43.160;24.148;2023-04-06T06:18:22;12.32;;;6.45;;
48596;SDS011;34382;43.160;24.148;2023-04-06T06:19:55;11.10;;;5.82;;
48596;SDS011;34382;43.160;24.148;2023-04-06T06:21:27;12.10;;;6.65;;
48596;SDS011;34382;43.160;24.148;2023-04-06T06:22:59;12.35;;;6.65;;
48596;SDS011;34382;43.160;24.148;2023-04-06T06:24:31;11.85;;;6.78;;
48596;SDS011;34382;43.160;24.148;2023-04-06T06:26:04;12.80;;;6.13;;
48596;SDS011;34382;43.160;24.148;2023-04-06T06:27:36;10.38;;;6.13;;
48596;SDS011;34382;43.160;24.148;2023-04-06T06:29:08;11.23;;;5.93;;
48596;SDS011;34382;43.160;24.148;2023-04-06T06:30:41;12.63;;;6.93;;
48596;SDS011;34382;43.160;24.148;2023-04-06T06:32:13;14.80;;;7.10;;
48596;SDS011;34382;43.160;24.148;2023-04-06T06:33:46;13.57;;;7.78;;
48596;SDS011;34382;43.160;24.148;2023-04-06T06:35:21;10.80;;;5.78;;
48596;SDS011;34382;43.160;24.148;2023-04-06T06:36:54;11.50;;;5.72;;
48596;SDS011;34382;43.160;24.148;2023-04-06T06:38:27;13.05;;;7.03;;
48596;SDS011;34382;43.160;24.148;2023-04-06T06:39:59;12.93;;;7.75;;
48596;SDS011;34382;43.160;24.148;2023-04-06T06:41:31;13.20;;;7.10;;
48596;SDS011;34382;43.160;24.148;2023-04-06T06:43:04;13.02;;;6.93;;
48596;SDS011;34382;43.160;24.148;2023-04-06T06:44:36;15.85;;;9.20;;
48596;SDS011;34382;43.160;24.148;2023-04-06T06:46:08;14.02;;;7.38;;
48596;SDS011;34382;43.160;24.148;2023-04-06T06:47:40;13.48;;;7.13;;
48596;SDS011;34382;43.160;24.148;2023-04-06T06:49:13;13.32;;;7.55;;
48596;SDS011;34382;43.160;24.148;2023-04-06T06:50:47;11.60;;;6.35;;
48596;SDS011;34382;43.160;24.148;2023-04-06T06:52:19;11.85;;;6.90;;
48596;SDS011;34382;43.160;24.148;2023-04-06T06:53:53;9.65;;;5.80;;
48596;SDS011;34382;43.160;24.148;2023-04-06T06:55:25;12.52;;;6.85;;
48596;SDS011;34382;43.160;24.148;2023-04-06T06:56:58;13.57;;;7.32;;
48596;SDS011;34382;43.160;24.148;2023-04-06T07:00:07;15.00;;;9.07;;
48596;SDS011;34382;43.160;24.148;2023-04-06T07:01:43;13.48;;;7.60;;
48596;SDS011;34382;43.160;24.148;2023-04-06T07:03:15;12.45;;;5.97;;
48596;SDS011;34382;43.160;24.148;2023-04-06T07:04:47;10.95;;;6.30;;
48596;SDS011;34382;43.160;24.148;2023-04-06T07:06:21;11.00;;;5.68;;
48596;SDS011;34382;43.160;24.148;2023-04-06T07:07:54;9.27;;;5.63;;
48596;SDS011;34382;43.160;24.148;2023-04-06T07:09:26;10.55;;;5.55;;
48596;SDS011;34382;43.160;24.148;2023-04-06T07:10:59;12.70;;;5.78;;
48596;SDS011;34382;43.160;24.148;2023-04-06T07:12:32;12.20;;;7.38;;
48596;SDS011;34382;43.160;24.148;2023-04-06T07:14:06;10.10;;;5.90;;
48596;SDS011;34382;43.160;24.148;2023-04-06T07:15:39;13.15;;;7.00;;
48596;SDS011;34382;43.160;24.148;2023-04-06T07:17:11;11.15;;;6.30;;
48596;SDS011;34382;43.160;24.148;2023-04-06T07:18:43;12.82;;;6.88;;
48596;SDS011;34382;43.160;24.148;2023-04-06T07:20:15;11.65;;;6.82;;
48596;SDS011;34382;43.160;24.148;2023-04-06T07:21:47;12.48;;;7.18;;
48596;SDS011;34382;43.160;24.148;2023-04-06T07:23:21;12.63;;;6.38;;
48596;SDS011;34382;43.160;24.148;2023-04-06T07:24:53;12.00;;;7.30;;
48596;SDS011;34382;43.160;24.148;2023-04-06T07:26:26;13.48;;;8.25;;
48596;SDS011;34382;43.160;24.148;2023-04-06T07:27:58;12.85;;;5.90;;
48596;SDS011;34382;43.160;24.148;2023-04-06T07:29:30;12.90;;;7.07;;
48596;SDS011;34382;43.160;24.148;2023-04-06T07:31:03;12.40;;;7.75;;
48596;SDS011;34382;43.160;24.148;2023-04-06T07:32:35;13.57;;;7.43;;
48596;SDS011;34382;43.160;24.148;2023-04-06T07:34:07;12.55;;;6.90;;
48596;SDS011;34382;43.160;24.148;2023-04-06T07:35:40;10.07;;;5.57;;
48596;SDS011;34382;43.160;24.148;2023-04-06T07:37:12;11.57;;;6.20;;
48596;SDS011;34382;43.160;24.148;2023-04-06T07:38:45;12.67;;;6.63;;
48596;SDS011;34382;43.160;24.148;2023-04-06T07:40:17;11.30;;;5.35;;
48596;SDS011;34382;43.160;24.148;2023-04-06T07:41:51;11.52;;;5.97;;
48596;SDS011;34382;43.160;24.148;2023-04-06T07:43:23;9.25;;;5.32;;
48596;SDS011;34382;43.160;24.148;2023-04-06T07:44:55;11.23;;;5.63;;
48596;SDS011;34382;43.160;24.148;2023-04-06T07:46:28;10.00;;;5.10;;
48596;SDS011;34382;43.160;24.148;2023-04-06T07:48:00;9.77;;;5.50;;
48596;SDS011;34382;43.160;24.148;2023-04-06T07:49:32;10.85;;;5.65;;
48596;SDS011;34382;43.160;24.148;2023-04-06T07:51:05;10.73;;;5.18;;
48596;SDS011;34382;43.160;24.148;2023-04-06T07:52:38;11.90;;;5.93;;
48596;SDS011;34382;43.160;24.148;2023-04-06T07:54:10;11.13;;;5.33;;
48596;SDS011;34382;43.160;24.148;2023-04-06T07:55:42;12.35;;;5.22;;
48596;SDS011;34382;43.160;24.148;2023-04-06T07:57:14;10.50;;;5.20;;
48596;SDS011;34382;43.160;24.148;2023-04-06T07:58:47;12.15;;;5.60;;
48596;SDS011;34382;43.160;24.148;2023-04-06T08:00:23;11.88;;;6.50;;
48596;SDS011;34382;43.160;24.148;2023-04-06T08:01:55;10.45;;;5.63;;
48596;SDS011;34382;43.160;24.148;2023-04-06T08:03:27;11.05;;;5.43;;
48596;SDS011;34382;43.160;24.148;2023-04-06T08:05:00;11.75;;;5.95;;
48596;SDS011;34382;43.160;24.148;2023-04-06T08:06:32;10.43;;;5.90;;
48596;SDS011;34382;43.160;24.148;2023-04-06T08:08:05;8.43;;;4.93;;
48596;SDS011;34382;43.160;24.148;2023-04-06T08:09:41;8.65;;;4.53;;
48596;SDS011;34382;43.160;24.148;2023-04-06T08:11:13;9.30;;;5.40;;
48596;SDS011;34382;43.160;24.148;2023-04-06T08:12:45;9.82;;;5.20;;
48596;SDS011;34382;43.160;24.148;2023-04-06T08:14:17;9.20;;;4.73;;
48596;SDS011;34382;43.160;24.148;2023-04-06T08:15:50;9.32;;;5.22;;
48596;SDS011;34382;43.160;24.148;2023-04-06T08:17:22;10.40;;;5.47;;
48596;SDS011;34382;43.160;24.148;2023-04-06T08:18:54;9.38;;;5.07;;
48596;SDS011;34382;43.160;24.148;2023-04-06T08:20:26;15.65;;;6.72;;
48596;SDS011;34382;43.160;24.148;2023-04-06T08:21:58;9.80;;;5.38;;
48596;SDS011;34382;43.160;24.148;2023-04-06T08:23:31;11.82;;;5.70;;
48596;SDS011;34382;43.160;24.148;2023-04-06T08:25:03;10.00;;;5.75;;
48596;SDS011;34382;43.160;24.148;2023-04-06T08:26:36;8.82;;;5.13;;
48596;SDS011;34382;43.160;24.148;2023-04-06T08:29:41;10.32;;;5.57;;
48596;SDS011;34382;43.160;24.148;2023-04-06T08:31:13;9.10;;;4.82;;
48596;SDS011;34382;43.160;24.148;2023-04-06T08:32:45;10.15;;;5.25;;
48596;SDS011;34382;43.160;24.148;2023-04-06T08:34:18;9.13;;;5.10;;
48596;SDS011;34382;43.160;24.148;2023-04-06T08:35:50;9.50;;;5.13;;
48596;SDS011;34382;43.160;24.148;2023-04-06T08:37:22;12.43;;;5.40;;
48596;SDS011;34382;43.160;24.148;2023-04-06T08:38:55;9.00;;;5.13;;
48596;SDS011;34382;43.160;24.148;2023-04-06T08:40:27;9.65;;;5.40;;
48596;SDS011;34382;43.160;24.148;2023-04-06T08:42:00;10.05;;;5.53;;
48596;SDS011;34382;43.160;24.148;2023-04-06T08:43:35;10.55;;;5.70;;
48596;SDS011;34382;43.160;24.148;2023-04-06T08:45:26;10.45;;;5.35;;
48596;SDS011;34382;43.160;24.148;2023-04-06T08:46:59;9.40;;;5.53;;
48596;SDS011;34382;43.160;24.148;2023-04-06T08:48:31;9.68;;;5.10;;
48596;SDS011;34382;43.160;24.148;2023-04-06T08:50:04;10.18;;;6.15;;
48596;SDS011;34382;43.160;24.148;2023-04-06T08:51:37;9.48;;;5.20;;
48596;SDS011;34382;43.160;24.148;2023-04-06T08:53:10;10.80;;;6.38;;
48596;SDS011;34382;43.160;24.148;2023-04-06T08:54:43;10.43;;;5.80;;
48596;SDS011;34382;43.160;24.148;2023-04-06T08:56:15;11.88;;;6.60;;
48596;SDS011;34382;43.160;24.148;2023-04-06T08:57:47;11.98;;;6.40;;
48596;SDS011;34382;43.160;24.148;2023-04-06T08:59:20;11.53;;;6.60;;
48596;SDS011;34382;43.160;24.148;2023-04-06T09:00:52;9.25;;;5.40;;
48596;SDS011;34382;43.160;24.148;2023-04-06T09:02:24;10.38;;;5.20;;
48596;SDS011;34382;43.160;24.148;2023-04-06T09:03:58;10.15;;;5.63;;
48596;SDS011;34382;43.160;24.148;2023-04-06T09:05:32;9.65;;;5.28;;
48596;SDS011;34382;43.160;24.148;2023-04-06T09:07:04;11.18;;;5.78;;
48596;SDS011;34382;43.160;24.148;2023-04-06T09:08:40;10.48;;;5.45;;
48596;SDS011;34382;43.160;24.148;2023-04-06T09:10:12;11.00;;;5.60;;
48596;SDS011;34382;43.160;24.148;2023-04-06T09:11:45;10.48;;;5.68;;
48596;SDS011;34382;43.160;24.148;2023-04-06T09:13:22;11.10;;;6.13;;